sensor_id;sensor_type;location;lat;lon;timestamp;pressure;altitude;pressure_sealevel;temperature;humidity
57024;BME280;42916;54.346;18.562;2022-08-03T00:04:24;100670.75;;;14.09;91.27
57024;BME280;42916;54.346;18.562;2022-08-03T00:06:51;100672.71;;;14.12;91.43
57024;BME280;42916;54.346;18.562;2022-08-03T00:09:17;100669.82;;;14.15;91.42
57024;BME280;42916;54.346;18.562;2022-08-03T00:11:48;100667.36;;;14.16;91.26
57024;BME280;42916;54.346;18.562;2022-08-03T00:14:15;100665.11;;;14.16;91.17
57024;BME280;42916;54.346;18.562;2022-08-03T00:16:42;100664.08;;;14.17;91.20
57024;BME280;42916;54.346;18.562;2022-08-03T00:19:11;100660.73;;;14.18;91.03
57024;BME280;42916;54.346;18.562;2022-08-03T00:21:38;100661.06;;;14.19;91.24
57024;BME280;42916;54.346;18.562;2022-08-03T00:24:05;100655.33;;;14.21;91.51
57024;BME280;42916;54.346;18.562;2022-08-03T00:26:32;100655.16;;;14.23;91.52
57024;BME280;42916;54.346;18.562;2022-08-03T00:28:59;100657.45;;;14.26;91.55
57024;BME280;42916;54.346;18.562;2022-08-03T00:31:25;100660.14;;;14.29;91.73
57024;BME280;42916;54.346;18.562;2022-08-03T00:33:52;100653.41;;;14.33;91.86
57024;BME280;42916;54.346;18.562;2022-08-03T00:36:19;100652.77;;;14.35;91.90
57024;BME280;42916;54.346;18.562;2022-08-03T00:38:49;100652.86;;;14.38;91.84
57024;BME280;42916;54.346;18.562;2022-08-03T00:41:15;100649.73;;;14.39;92.00
57024;BME280;42916;54.346;18.562;2022-08-03T00:43:41;100644.75;;;14.43;92.15
57024;BME280;42916;54.346;18.562;2022-08-03T00:46:12;100644.42;;;14.47;92.19
57024;BME280;42916;54.346;18.562;2022-08-03T00:48:41;100645.84;;;14.49;92.27
57024;BME280;42916;54.346;18.562;2022-08-03T00:51:11;100644.56;;;14.54;92.34
57024;BME280;42916;54.346;18.562;2022-08-03T00:53:37;100642.46;;;14.59;92.58
57024;BME280;42916;54.346;18.562;2022-08-03T00:56:04;100644.92;;;14.62;92.45
57024;BME280;42916;54.346;18.562;2022-08-03T00:58:31;100642.08;;;14.66;92.58
57024;BME280;42916;54.346;18.562;2022-08-03T01:00:59;100638.89;;;14.72;92.44
57024;BME280;42916;54.346;18.562;2022-08-03T01:03:25;100632.03;;;14.75;92.42
57024;BME280;42916;54.346;18.562;2022-08-03T01:05:58;100634.59;;;14.81;92.50
57024;BME280;42916;54.346;18.562;2022-08-03T01:11:26;100631.89;;;14.89;92.45
57024;BME280;42916;54.346;18.562;2022-08-03T01:14:14;100623.23;;;14.90;92.48
57024;BME280;42916;54.346;18.562;2022-08-03T01:19:57;100620.27;;;14.91;92.14
57024;BME280;42916;54.346;18.562;2022-08-03T01:30:56;100611.70;;;14.95;91.96
57024;BME280;42916;54.346;18.562;2022-08-03T01:33:42;100607.91;;;14.96;92.01
57024;BME280;42916;54.346;18.562;2022-08-03T01:36:18;100608.35;;;14.98;92.19
57024;BME280;42916;54.346;18.562;2022-08-03T01:38:53;100608.08;;;15.00;92.06
57024;BME280;42916;54.346;18.562;2022-08-03T01:41:24;100609.46;;;15.04;92.16
57024;BME280;42916;54.346;18.562;2022-08-03T01:43:56;100610.56;;;15.07;92.39
57024;BME280;42916;54.346;18.562;2022-08-03T01:46:27;100606.66;;;15.11;92.69
57024;BME280;42916;54.346;18.562;2022-08-03T01:48:55;100601.28;;;15.14;92.36
57024;BME280;42916;54.346;18.562;2022-08-03T01:51:30;100599.89;;;15.16;92.65
57024;BME280;42916;54.346;18.562;2022-08-03T01:54:02;100600.05;;;15.18;92.47
57024;BME280;42916;54.346;18.562;2022-08-03T01:56:30;100596.36;;;15.22;92.50
57024;BME280;42916;54.346;18.562;2022-08-03T01:59:06;100596.94;;;15.26;92.15
57024;BME280;42916;54.346;18.562;2022-08-03T02:01:47;100588.81;;;15.28;92.08
57024;BME280;42916;54.346;18.562;2022-08-03T02:04:16;100594.39;;;15.32;91.73
57024;BME280;42916;54.346;18.562;2022-08-03T02:06:45;100593.39;;;15.35;91.71
57024;BME280;42916;54.346;18.562;2022-08-03T02:09:21;100591.89;;;15.37;91.83
57024;BME280;42916;54.346;18.562;2022-08-03T02:11:50;100593.54;;;15.39;91.58
57024;BME280;42916;54.346;18.562;2022-08-03T02:14:19;100594.61;;;15.41;91.55
57024;BME280;42916;54.346;18.562;2022-08-03T02:16:48;100589.78;;;15.42;91.73
57024;BME280;42916;54.346;18.562;2022-08-03T02:19:20;100589.44;;;15.41;91.34
57024;BME280;42916;54.346;18.562;2022-08-03T02:21:53;100588.58;;;15.43;91.23
57024;BME280;42916;54.346;18.562;2022-08-03T02:24:22;100584.72;;;15.47;90.74
57024;BME280;42916;54.346;18.562;2022-08-03T02:26:54;100585.56;;;15.50;90.85
57024;BME280;42916;54.346;18.562;2022-08-03T02:29:24;100587.88;;;15.50;90.49
57024;BME280;42916;54.346;18.562;2022-08-03T02:31:56;100590.34;;;15.52;90.46
57024;BME280;42916;54.346;18.562;2022-08-03T02:34:27;100589.10;;;15.57;90.04
57024;BME280;42916;54.346;18.562;2022-08-03T02:36:59;100583.35;;;15.62;89.77
57024;BME280;42916;54.346;18.562;2022-08-03T02:39:51;100585.70;;;15.66;90.00
57024;BME280;42916;54.346;18.562;2022-08-03T02:42:25;100584.06;;;15.69;90.00
57024;BME280;42916;54.346;18.562;2022-08-03T02:44:54;100585.92;;;15.71;89.85
57024;BME280;42916;54.346;18.562;2022-08-03T02:47:27;100581.98;;;15.68;89.62
57024;BME280;42916;54.346;18.562;2022-08-03T02:49:56;100582.11;;;15.67;89.41
57024;BME280;42916;54.346;18.562;2022-08-03T02:52:32;100580.80;;;15.66;89.57
57024;BME280;42916;54.346;18.562;2022-08-03T02:55:03;100580.75;;;15.66;89.81
57024;BME280;42916;54.346;18.562;2022-08-03T02:57:39;100584.53;;;15.68;90.01
57024;BME280;42916;54.346;18.562;2022-08-03T03:00:19;100582.69;;;15.72;90.13
57024;BME280;42916;54.346;18.562;2022-08-03T03:02:46;100586.64;;;15.75;89.64
57024;BME280;42916;54.346;18.562;2022-08-03T03:05:14;100578.06;;;15.77;89.49
57024;BME280;42916;54.346;18.562;2022-08-03T03:07:42;100582.52;;;15.76;89.56
57024;BME280;42916;54.346;18.562;2022-08-03T03:10:09;100585.31;;;15.76;89.36
57024;BME280;42916;54.346;18.562;2022-08-03T03:12:37;100583.67;;;15.76;89.18
57024;BME280;42916;54.346;18.562;2022-08-03T03:15:04;100588.45;;;15.76;89.17
57024;BME280;42916;54.346;18.562;2022-08-03T03:17:32;100586.00;;;15.80;89.10
57024;BME280;42916;54.346;18.562;2022-08-03T03:20:00;100582.77;;;15.87;89.00
57024;BME280;42916;54.346;18.562;2022-08-03T03:22:28;100584.27;;;15.93;88.78
57024;BME280;42916;54.346;18.562;2022-08-03T03:24:59;100581.85;;;15.99;88.51
57024;BME280;42916;54.346;18.562;2022-08-03T03:27:26;100582.11;;;16.00;88.51
57024;BME280;42916;54.346;18.562;2022-08-03T03:29:53;100577.48;;;16.04;88.11
57024;BME280;42916;54.346;18.562;2022-08-03T03:32:20;100581.61;;;16.07;87.93
57024;BME280;42916;54.346;18.562;2022-08-03T03:34:46;100579.56;;;16.10;87.72
57024;BME280;42916;54.346;18.562;2022-08-03T03:37:20;100583.76;;;16.14;87.23
57024;BME280;42916;54.346;18.562;2022-08-03T03:39:47;100580.58;;;16.18;87.10
57024;BME280;42916;54.346;18.562;2022-08-03T03:42:13;100578.30;;;16.22;86.72
57024;BME280;42916;54.346;18.562;2022-08-03T03:44:40;100589.79;;;16.25;86.80
57024;BME280;42916;54.346;18.562;2022-08-03T03:47:09;100585.65;;;16.29;86.46
57024;BME280;42916;54.346;18.562;2022-08-03T03:49:36;100588.48;;;16.31;86.60
57024;BME280;42916;54.346;18.562;2022-08-03T03:52:03;100590.44;;;16.33;86.50
57024;BME280;42916;54.346;18.562;2022-08-03T03:54:43;100593.03;;;16.32;86.31
57024;BME280;42916;54.346;18.562;2022-08-03T03:57:13;100592.85;;;16.32;86.21
57024;BME280;42916;54.346;18.562;2022-08-03T03:59:41;100590.90;;;16.30;86.16
57024;BME280;42916;54.346;18.562;2022-08-03T04:02:09;100592.39;;;16.25;86.43
57024;BME280;42916;54.346;18.562;2022-08-03T04:04:37;100595.77;;;16.20;86.72
57024;BME280;42916;54.346;18.562;2022-08-03T04:07:24;100595.52;;;16.17;87.11
57024;BME280;42916;54.346;18.562;2022-08-03T04:10:21;100599.17;;;16.14;87.15
57024;BME280;42916;54.346;18.562;2022-08-03T04:13:09;100598.98;;;16.12;87.25
57024;BME280;42916;54.346;18.562;2022-08-03T04:15:37;100598.91;;;16.13;87.46
57024;BME280;42916;54.346;18.562;2022-08-03T04:18:07;100600.73;;;16.12;87.51
57024;BME280;42916;54.346;18.562;2022-08-03T04:20:36;100604.38;;;16.15;87.68
57024;BME280;42916;54.346;18.562;2022-08-03T04:23:05;100608.30;;;16.17;87.46
57024;BME280;42916;54.346;18.562;2022-08-03T04:25:39;100608.20;;;16.18;87.26
57024;BME280;42916;54.346;18.562;2022-08-03T04:28:09;100606.46;;;16.21;87.49
57024;BME280;42916;54.346;18.562;2022-08-03T04:30:37;100609.30;;;16.24;87.20
57024;BME280;42916;54.346;18.562;2022-08-03T04:33:51;100609.74;;;16.29;87.50
57024;BME280;42916;54.346;18.562;2022-08-03T04:37:10;100608.37;;;16.41;87.37
57024;BME280;42916;54.346;18.562;2022-08-03T04:39:41;100611.64;;;16.50;87.39
57024;BME280;42916;54.346;18.562;2022-08-03T04:42:39;100605.77;;;16.59;87.17
57024;BME280;42916;54.346;18.562;2022-08-03T04:45:48;100611.10;;;16.69;87.22
57024;BME280;42916;54.346;18.562;2022-08-03T04:48:27;100607.98;;;16.86;86.83
57024;BME280;42916;54.346;18.562;2022-08-03T04:51:06;100608.40;;;17.03;86.99
57024;BME280;42916;54.346;18.562;2022-08-03T04:54:20;100613.96;;;17.24;86.71
57024;BME280;42916;54.346;18.562;2022-08-03T04:56:47;100618.54;;;17.35;86.19
57024;BME280;42916;54.346;18.562;2022-08-03T05:03:10;100623.83;;;17.55;85.40
57024;BME280;42916;54.346;18.562;2022-08-03T05:05:53;100625.85;;;17.68;84.88
57024;BME280;42916;54.346;18.562;2022-08-03T05:08:20;100627.08;;;17.81;84.79
57024;BME280;42916;54.346;18.562;2022-08-03T05:10:50;100629.30;;;17.96;84.45
57024;BME280;42916;54.346;18.562;2022-08-03T05:21:01;100634.48;;;18.58;83.21
57024;BME280;42916;54.346;18.562;2022-08-03T05:23:29;100640.05;;;18.70;82.91
57024;BME280;42916;54.346;18.562;2022-08-03T05:25:58;100642.43;;;18.82;82.30
57024;BME280;42916;54.346;18.562;2022-08-03T05:28:32;100653.20;;;18.94;81.51
57024;BME280;42916;54.346;18.562;2022-08-03T05:31:22;100649.09;;;19.06;80.81
57024;BME280;42916;54.346;18.562;2022-08-03T05:34:08;100644.08;;;19.16;80.25
57024;BME280;42916;54.346;18.562;2022-08-03T05:36:36;100647.86;;;19.26;79.27
57024;BME280;42916;54.346;18.562;2022-08-03T05:39:15;100652.09;;;19.33;77.86
57024;BME280;42916;54.346;18.562;2022-08-03T05:41:58;100646.88;;;19.34;77.03
57024;BME280;42916;54.346;18.562;2022-08-03T05:44:35;100645.34;;;19.39;76.69
57024;BME280;42916;54.346;18.562;2022-08-03T05:47:09;100648.73;;;19.45;76.51
57024;BME280;42916;54.346;18.562;2022-08-03T05:49:50;100655.06;;;19.51;75.76
57024;BME280;42916;54.346;18.562;2022-08-03T05:52:27;100647.58;;;19.53;75.17
57024;BME280;42916;54.346;18.562;2022-08-03T05:55:00;100646.98;;;19.53;74.79
57024;BME280;42916;54.346;18.562;2022-08-03T05:57:40;100642.17;;;19.54;74.66
57024;BME280;42916;54.346;18.562;2022-08-03T06:00:13;100645.91;;;19.61;74.61
57024;BME280;42916;54.346;18.562;2022-08-03T06:03:04;100643.71;;;19.67;74.00
57024;BME280;42916;54.346;18.562;2022-08-03T06:06:12;100648.27;;;19.74;73.80
57024;BME280;42916;54.346;18.562;2022-08-03T06:09:04;100651.80;;;19.85;73.60
57024;BME280;42916;54.346;18.562;2022-08-03T06:11:45;100656.96;;;19.98;73.19
57024;BME280;42916;54.346;18.562;2022-08-03T06:14:28;100658.92;;;20.10;72.45
57024;BME280;42916;54.346;18.562;2022-08-03T06:17:33;100654.33;;;20.25;70.54
57024;BME280;42916;54.346;18.562;2022-08-03T06:20:20;100653.67;;;20.40;69.91
57024;BME280;42916;54.346;18.562;2022-08-03T06:23:04;100655.70;;;20.55;69.78
57024;BME280;42916;54.346;18.562;2022-08-03T06:25:30;100658.67;;;20.67;69.00
57024;BME280;42916;54.346;18.562;2022-08-03T06:27:59;100655.84;;;20.79;67.76
57024;BME280;42916;54.346;18.562;2022-08-03T06:30:27;100655.70;;;20.92;67.43
57024;BME280;42916;54.346;18.562;2022-08-03T06:33:17;100658.29;;;21.04;67.32
57024;BME280;42916;54.346;18.562;2022-08-03T06:35:56;100656.35;;;21.18;66.54
57024;BME280;42916;54.346;18.562;2022-08-03T06:38:25;100658.43;;;21.30;65.88
57024;BME280;42916;54.346;18.562;2022-08-03T06:40:57;100657.09;;;21.42;65.44
57024;BME280;42916;54.346;18.562;2022-08-03T06:43:33;100656.88;;;21.55;64.70
57024;BME280;42916;54.346;18.562;2022-08-03T06:46:03;100659.13;;;21.68;64.25
57024;BME280;42916;54.346;18.562;2022-08-03T06:48:33;100661.61;;;21.80;63.36
57024;BME280;42916;54.346;18.562;2022-08-03T06:51:00;100656.19;;;21.94;62.12
57024;BME280;42916;54.346;18.562;2022-08-03T06:53:32;100658.96;;;22.06;61.29
57024;BME280;42916;54.346;18.562;2022-08-03T06:56:08;100662.96;;;22.19;60.75
57024;BME280;42916;54.346;18.562;2022-08-03T06:58:37;100658.33;;;22.32;60.37
57024;BME280;42916;54.346;18.562;2022-08-03T07:01:16;100660.74;;;22.44;59.69
57024;BME280;42916;54.346;18.562;2022-08-03T07:03:49;100664.80;;;22.59;58.74
57024;BME280;42916;54.346;18.562;2022-08-03T07:06:44;100666.31;;;22.72;58.18
57024;BME280;42916;54.346;18.562;2022-08-03T07:09:41;100664.85;;;22.82;57.47
57024;BME280;42916;54.346;18.562;2022-08-03T07:12:13;100662.92;;;22.93;56.42
57024;BME280;42916;54.346;18.562;2022-08-03T07:18:24;100659.08;;;23.15;55.20
57024;BME280;42916;54.346;18.562;2022-08-03T07:21:22;100656.21;;;23.28;54.25
57024;BME280;42916;54.346;18.562;2022-08-03T07:24:37;100655.34;;;23.38;53.08
57024;BME280;42916;54.346;18.562;2022-08-03T07:28:00;100653.82;;;23.48;52.13
57024;BME280;42916;54.346;18.562;2022-08-03T07:30:38;100652.95;;;23.58;52.19
57024;BME280;42916;54.346;18.562;2022-08-03T07:33:59;100653.55;;;23.72;51.07
57024;BME280;42916;54.346;18.562;2022-08-03T07:37:17;100655.90;;;23.85;50.31
57024;BME280;42916;54.346;18.562;2022-08-03T07:40:29;100652.86;;;23.91;48.72
57024;BME280;42916;54.346;18.562;2022-08-03T07:51:15;100649.37;;;24.21;47.39
57024;BME280;42916;54.346;18.562;2022-08-03T07:54:16;100650.89;;;24.33;47.23
57024;BME280;42916;54.346;18.562;2022-08-03T08:07:43;100650.63;;;24.75;47.32
57024;BME280;42916;54.346;18.562;2022-08-03T08:15:02;100648.83;;;24.90;47.51
57024;BME280;42916;54.346;18.562;2022-08-03T08:18:18;100651.44;;;24.97;47.69
57024;BME280;42916;54.346;18.562;2022-08-03T08:21:17;100654.27;;;25.03;47.86
57024;BME280;42916;54.346;18.562;2022-08-03T08:24:23;100650.77;;;25.06;47.71
57024;BME280;42916;54.346;18.562;2022-08-03T08:27:16;100651.59;;;25.12;47.78
57024;BME280;42916;54.346;18.562;2022-08-03T08:30:08;100657.08;;;25.18;47.58
57024;BME280;42916;54.346;18.562;2022-08-03T08:36:25;100651.72;;;25.37;48.14
57024;BME280;42916;54.346;18.562;2022-08-03T08:39:14;100655.80;;;25.40;47.77
57024;BME280;42916;54.346;18.562;2022-08-03T08:45:42;100654.30;;;25.41;48.00
57024;BME280;42916;54.346;18.562;2022-08-03T08:59:49;100647.86;;;25.72;48.13
57024;BME280;42916;54.346;18.562;2022-08-03T09:02:13;100652.92;;;25.82;47.73
57024;BME280;42916;54.346;18.562;2022-08-03T09:04:39;100647.88;;;25.92;47.55
57024;BME280;42916;54.346;18.562;2022-08-03T09:07:05;100647.08;;;26.02;47.17
57024;BME280;42916;54.346;18.562;2022-08-03T09:09:31;100647.26;;;26.08;46.97
57024;BME280;42916;54.346;18.562;2022-08-03T09:11:56;100655.80;;;26.15;46.25
57024;BME280;42916;54.346;18.562;2022-08-03T09:14:22;100649.06;;;26.22;45.96
57024;BME280;42916;54.346;18.562;2022-08-03T09:16:58;100643.80;;;26.32;46.23
57024;BME280;42916;54.346;18.562;2022-08-03T09:19:28;100647.50;;;26.40;46.62
57024;BME280;42916;54.346;18.562;2022-08-03T09:22:14;100649.69;;;26.41;46.45
57024;BME280;42916;54.346;18.562;2022-08-03T09:35:26;100645.48;;;26.84;43.52
57024;BME280;42916;54.346;18.562;2022-08-03T09:38:10;100647.61;;;26.93;42.85
57024;BME280;42916;54.346;18.562;2022-08-03T09:40:37;100648.20;;;26.97;42.42
57024;BME280;42916;54.346;18.562;2022-08-03T09:43:05;100647.54;;;27.03;41.82
57024;BME280;42916;54.346;18.562;2022-08-03T09:45:38;100645.19;;;27.11;42.25
57024;BME280;42916;54.346;18.562;2022-08-03T09:48:27;100649.38;;;27.23;42.15
57024;BME280;42916;54.346;18.562;2022-08-03T09:50:59;100649.28;;;27.29;41.59
57024;BME280;42916;54.346;18.562;2022-08-03T09:53:26;100648.36;;;27.58;41.32
57024;BME280;42916;54.346;18.562;2022-08-03T09:55:58;100645.55;;;27.87;40.87
57024;BME280;42916;54.346;18.562;2022-08-03T09:58:27;100647.33;;;27.91;40.63
57024;BME280;42916;54.346;18.562;2022-08-03T10:01:02;100640.00;;;27.99;40.46
57024;BME280;42916;54.346;18.562;2022-08-03T10:03:31;100641.77;;;28.04;40.22
57024;BME280;42916;54.346;18.562;2022-08-03T10:06:14;100644.74;;;28.13;40.16
57024;BME280;42916;54.346;18.562;2022-08-03T10:08:41;100649.48;;;28.21;39.87
57024;BME280;42916;54.346;18.562;2022-08-03T10:11:08;100654.29;;;28.27;39.65
57024;BME280;42916;54.346;18.562;2022-08-03T10:13:35;100655.17;;;28.23;38.93
57024;BME280;42916;54.346;18.562;2022-08-03T10:16:03;100652.81;;;28.09;38.88
57024;BME280;42916;54.346;18.562;2022-08-03T10:18:31;100646.50;;;28.05;39.17
57024;BME280;42916;54.346;18.562;2022-08-03T10:21:03;100648.67;;;28.17;39.36
57024;BME280;42916;54.346;18.562;2022-08-03T10:23:33;100642.52;;;28.22;38.64
57024;BME280;42916;54.346;18.562;2022-08-03T10:26:02;100639.34;;;28.26;38.74
57024;BME280;42916;54.346;18.562;2022-08-03T10:28:43;100644.08;;;28.32;38.51
57024;BME280;42916;54.346;18.562;2022-08-03T10:31:15;100640.77;;;28.30;38.25
57024;BME280;42916;54.346;18.562;2022-08-03T10:33:46;100640.50;;;28.29;38.67
57024;BME280;42916;54.346;18.562;2022-08-03T10:36:15;100641.23;;;28.38;38.47
57024;BME280;42916;54.346;18.562;2022-08-03T10:38:43;100631.87;;;28.50;38.07
57024;BME280;42916;54.346;18.562;2022-08-03T10:41:14;100634.80;;;28.65;37.99
57024;BME280;42916;54.346;18.562;2022-08-03T10:43:46;100634.05;;;28.78;37.44
57024;BME280;42916;54.346;18.562;2022-08-03T10:46:18;100636.08;;;28.79;37.17
57024;BME280;42916;54.346;18.562;2022-08-03T10:48:47;100637.48;;;28.77;37.02
57024;BME280;42916;54.346;18.562;2022-08-03T10:51:15;100636.05;;;28.88;37.16
57024;BME280;42916;54.346;18.562;2022-08-03T10:53:42;100633.23;;;28.96;36.51
57024;BME280;42916;54.346;18.562;2022-08-03T11:02:14;100629.83;;;29.08;35.46
57024;BME280;42916;54.346;18.562;2022-08-03T11:04:41;100623.59;;;29.14;35.78
57024;BME280;42916;54.346;18.562;2022-08-03T11:07:22;100624.51;;;29.15;35.60
57024;BME280;42916;54.346;18.562;2022-08-03T11:09:54;100622.19;;;29.15;35.65
57024;BME280;42916;54.346;18.562;2022-08-03T11:12:23;100625.66;;;29.26;35.22
57024;BME280;42916;54.346;18.562;2022-08-03T11:14:52;100621.20;;;29.34;34.40
57024;BME280;42916;54.346;18.562;2022-08-03T11:17:20;100621.48;;;29.38;34.03
57024;BME280;42916;54.346;18.562;2022-08-03T11:19:49;100618.36;;;29.37;34.20
57024;BME280;42916;54.346;18.562;2022-08-03T11:22:17;100617.30;;;29.36;34.33
57024;BME280;42916;54.346;18.562;2022-08-03T11:27:24;100614.52;;;29.50;34.23
57024;BME280;42916;54.346;18.562;2022-08-03T11:35:19;100617.93;;;29.81;31.69
57024;BME280;42916;54.346;18.562;2022-08-03T11:46:07;100601.52;;;30.49;32.88
57024;BME280;42916;54.346;18.562;2022-08-03T11:48:38;100597.77;;;30.68;32.87
57024;BME280;42916;54.346;18.562;2022-08-03T11:51:18;100595.08;;;30.91;32.79
57024;BME280;42916;54.346;18.562;2022-08-03T11:53:45;100598.30;;;31.14;32.68
57024;BME280;42916;54.346;18.562;2022-08-03T11:56:13;100602.58;;;31.32;31.89
57024;BME280;42916;54.346;18.562;2022-08-03T11:58:51;100600.69;;;31.52;31.87
57024;BME280;42916;54.346;18.562;2022-08-03T12:01:20;100605.17;;;31.83;31.69
57024;BME280;42916;54.346;18.562;2022-08-03T12:03:48;100603.70;;;32.17;31.65
57024;BME280;42916;54.346;18.562;2022-08-03T12:06:16;100602.77;;;32.41;31.35
57024;BME280;42916;54.346;18.562;2022-08-03T12:08:45;100600.20;;;32.41;31.28
57024;BME280;42916;54.346;18.562;2022-08-03T12:11:14;100597.78;;;32.36;30.88
57024;BME280;42916;54.346;18.562;2022-08-03T12:13:46;100597.80;;;32.54;31.36
57024;BME280;42916;54.346;18.562;2022-08-03T12:16:22;100591.96;;;32.79;31.06
57024;BME280;42916;54.346;18.562;2022-08-03T12:19:00;100588.95;;;33.04;30.52
57024;BME280;42916;54.346;18.562;2022-08-03T12:21:28;100597.71;;;33.10;29.36
57024;BME280;42916;54.346;18.562;2022-08-03T12:23:56;100583.56;;;32.99;29.23
57024;BME280;42916;54.346;18.562;2022-08-03T12:26:25;100589.11;;;33.01;29.23
57024;BME280;42916;54.346;18.562;2022-08-03T12:28:52;100584.43;;;33.20;29.02
57024;BME280;42916;54.346;18.562;2022-08-03T12:31:19;100580.35;;;33.43;28.80
57024;BME280;42916;54.346;18.562;2022-08-03T12:34:03;100576.92;;;33.73;28.65
57024;BME280;42916;54.346;18.562;2022-08-03T12:36:34;100576.11;;;33.92;27.62
57024;BME280;42916;54.346;18.562;2022-08-03T12:39:06;100569.36;;;34.16;27.52
57024;BME280;42916;54.346;18.562;2022-08-03T12:41:36;100573.00;;;34.41;26.79
57024;BME280;42916;54.346;18.562;2022-08-03T12:44:05;100573.92;;;34.68;26.81
57024;BME280;42916;54.346;18.562;2022-08-03T12:46:37;100567.31;;;34.86;26.08
57024;BME280;42916;54.346;18.562;2022-08-03T12:49:12;100569.43;;;34.83;26.17
57024;BME280;42916;54.346;18.562;2022-08-03T12:54:21;100560.20;;;35.08;25.67
57024;BME280;42916;54.346;18.562;2022-08-03T12:56:58;100563.21;;;35.24;25.81
57024;BME280;42916;54.346;18.562;2022-08-03T12:59:28;100565.14;;;35.00;25.61
57024;BME280;42916;54.346;18.562;2022-08-03T13:01:56;100566.31;;;34.96;25.95
57024;BME280;42916;54.346;18.562;2022-08-03T13:04:26;100562.10;;;35.13;25.96
57024;BME280;42916;54.346;18.562;2022-08-03T13:07:05;100557.55;;;34.92;25.96
57024;BME280;42916;54.346;18.562;2022-08-03T13:09:49;100561.67;;;34.92;26.20
57024;BME280;42916;54.346;18.562;2022-08-03T13:12:18;100565.52;;;34.79;25.83
57024;BME280;42916;54.346;18.562;2022-08-03T13:14:47;100556.96;;;34.87;25.49
57024;BME280;42916;54.346;18.562;2022-08-03T13:17:14;100551.73;;;34.85;25.08
57024;BME280;42916;54.346;18.562;2022-08-03T13:19:42;100551.07;;;34.68;25.18
57024;BME280;42916;54.346;18.562;2022-08-03T13:22:19;100552.23;;;34.52;25.10
57024;BME280;42916;54.346;18.562;2022-08-03T13:24:48;100546.77;;;34.51;24.96
57024;BME280;42916;54.346;18.562;2022-08-03T13:27:15;100545.14;;;34.82;24.89
57024;BME280;42916;54.346;18.562;2022-08-03T13:29:42;100548.25;;;35.18;24.55
57024;BME280;42916;54.346;18.562;2022-08-03T13:32:09;100545.55;;;35.49;24.13
57024;BME280;42916;54.346;18.562;2022-08-03T13:34:36;100547.83;;;35.66;23.59
57024;BME280;42916;54.346;18.562;2022-08-03T13:37:03;100541.86;;;35.59;23.66
57024;BME280;42916;54.346;18.562;2022-08-03T13:39:30;100535.42;;;35.69;23.63
57024;BME280;42916;54.346;18.562;2022-08-03T13:41:56;100542.23;;;35.98;24.05
57024;BME280;42916;54.346;18.562;2022-08-03T13:44:23;100538.88;;;36.38;23.95
57024;BME280;42916;54.346;18.562;2022-08-03T13:46:49;100542.49;;;36.63;23.10
57024;BME280;42916;54.346;18.562;2022-08-03T13:49:16;100540.95;;;36.88;22.76
57024;BME280;42916;54.346;18.562;2022-08-03T13:51:43;100542.07;;;36.92;21.79
57024;BME280;42916;54.346;18.562;2022-08-03T13:54:09;100541.89;;;36.76;21.96
57024;BME280;42916;54.346;18.562;2022-08-03T13:56:36;100538.33;;;36.72;21.97
57024;BME280;42916;54.346;18.562;2022-08-03T13:59:02;100531.27;;;36.77;22.08
57024;BME280;42916;54.346;18.562;2022-08-03T14:01:29;100539.16;;;36.96;22.26
57024;BME280;42916;54.346;18.562;2022-08-03T14:03:55;100535.01;;;37.10;21.64
57024;BME280;42916;54.346;18.562;2022-08-03T14:06:23;100537.34;;;37.25;20.97
57024;BME280;42916;54.346;18.562;2022-08-03T14:08:51;100539.15;;;37.06;20.84
57024;BME280;42916;54.346;18.562;2022-08-03T14:11:17;100536.20;;;37.21;21.47
57024;BME280;42916;54.346;18.562;2022-08-03T14:13:44;100539.77;;;37.32;21.09
57024;BME280;42916;54.346;18.562;2022-08-03T14:16:10;100533.95;;;37.47;20.83
57024;BME280;42916;54.346;18.562;2022-08-03T14:18:37;100533.81;;;37.39;21.12
57024;BME280;42916;54.346;18.562;2022-08-03T14:21:04;100528.62;;;37.50;21.10
57024;BME280;42916;54.346;18.562;2022-08-03T14:23:31;100532.13;;;37.61;20.85
57024;BME280;42916;54.346;18.562;2022-08-03T14:25:58;100528.98;;;37.68;20.50
57024;BME280;42916;54.346;18.562;2022-08-03T14:28:25;100523.16;;;37.72;20.31
57024;BME280;42916;54.346;18.562;2022-08-03T14:30:53;100516.91;;;37.82;20.08
57024;BME280;42916;54.346;18.562;2022-08-03T14:33:21;100516.44;;;37.92;19.78
57024;BME280;42916;54.346;18.562;2022-08-03T14:35:48;100510.04;;;38.05;19.49
57024;BME280;42916;54.346;18.562;2022-08-03T14:38:15;100512.56;;;38.08;19.38
57024;BME280;42916;54.346;18.562;2022-08-03T14:40:43;100511.27;;;38.29;19.76
57024;BME280;42916;54.346;18.562;2022-08-03T14:43:10;100509.27;;;38.43;19.20
57024;BME280;42916;54.346;18.562;2022-08-03T14:45:37;100503.59;;;38.44;18.64
57024;BME280;42916;54.346;18.562;2022-08-03T14:48:04;100507.02;;;38.42;18.72
57024;BME280;42916;54.346;18.562;2022-08-03T14:50:31;100505.80;;;38.62;18.51
57024;BME280;42916;54.346;18.562;2022-08-03T14:52:58;100504.79;;;38.69;18.57
57024;BME280;42916;54.346;18.562;2022-08-03T14:55:24;100506.05;;;38.77;18.43
57024;BME280;42916;54.346;18.562;2022-08-03T14:57:51;100510.11;;;38.77;18.34
57024;BME280;42916;54.346;18.562;2022-08-03T15:00:17;100506.46;;;38.80;18.29
57024;BME280;42916;54.346;18.562;2022-08-03T15:02:44;100504.50;;;38.86;17.91
57024;BME280;42916;54.346;18.562;2022-08-03T15:05:10;100500.95;;;38.74;18.00